Latest Weather Observations for Bathurst Airport

IDN60801

Issued at 11:35 pm EDT Thursday 30 October 2014 (issued every 30 minutes, with the page automatically refreshed every 10 minutes)

About weather observations | Map of weather stations | Latest weather observations for NSW | Other Formats
Station Details ID: 063291 Name: BATHURST AIRPORT AWS Lat: -33.41 Lon: 149.65 Height: 744.5 m
Data from the previous 72 hours. | See also: Recent months for locations in New South Wales
Date/Time
EDT
Temp
°C
App
Temp
°C
Dew
Point
Rel
Hum
%
Delta-T
°C
Wind Press
QNH
hPa
Press
MSL
hPa
Rain
since 9 am
mm
Dir
 
Spd
km/h
Gust
km/h
Spd
kts
Gust
kts
30/11:30pm 12.4 9.1 2.6 51 4.5 E 9 11 5 6 1017.0 1015.7 0.0
30/11:00pm 14.2 12.2 2.5 45 5.4 SE 2 7 1 4 1017.0 1015.7 0.0
30/10:30pm 14.2 12.7 2.8 46 5.3 CALM 0 0 0 0 1016.9 1015.6 0.0
30/10:00pm 16.1 13.4 2.9 41 6.2 ENE 6 7 3 4 1016.9 1015.6 0.0
30/09:30pm 16.5 13.2 2.2 38 6.7 NE 9 11 5 6 1016.8 1015.5 0.0
30/09:00pm 16.7 13.4 2.3 38 6.8 NE 9 11 5 6 1016.6 1015.3 0.0
30/08:30pm 17.4 14.6 2.2 36 7.2 NNE 6 7 3 4 1016.3 1014.9 0.0
30/08:00pm 19.7 16.8 1.7 30 8.5 W 6 7 3 4 1016.1 1014.7 0.0
30/07:30pm 19.6 16.2 1.6 30 8.5 W 9 13 5 7 1015.8 1014.5 0.0
30/07:00pm 22.4 18.3 2.5 27 9.8 W 13 17 7 9 1015.7 1014.4 0.0
30/06:30pm 24.0 18.8 2.2 24 10.8 W 19 28 10 15 1015.6 1014.3 0.0
30/06:00pm 24.5 19.7 2.6 24 10.9 WNW 17 22 9 12 1015.5 1014.2 0.0
30/05:30pm 25.5 20.0 0.9 20 12.0 W 19 26 10 14 1015.3 1014.0 0.0
30/05:00pm 25.8 20.0 2.5 22 11.7 W 22 37 12 20 1015.2 1013.9 0.0
30/04:30pm 26.0 19.8 2.0 21 12.0 W 24 32 13 17 1015.4 1014.1 0.0
30/04:00pm 25.9 19.1 0.5 19 12.3 WSW 26 37 14 20 1015.4 1014.1 0.0
30/03:30pm 25.8 18.8 1.8 21 11.9 WSW 28 33 15 18 1015.6 1014.3 0.0
30/03:00pm 26.3 20.6 2.9 22 11.9 WSW 22 30 12 16 1016.1 1014.7 0.0
30/02:30pm 25.2 18.6 2.0 22 11.5 W 26 39 14 21 1016.4 1015.1 0.0
30/02:00pm 25.2 18.3 2.6 23 11.3 WSW 28 41 15 22 1016.6 1015.3 0.0
30/01:30pm 24.8 19.6 3.5 25 10.8 WSW 20 30 11 16 1016.8 1015.5 0.0
30/01:00pm 23.3 18.1 3.8 28 9.9 W 20 32 11 17 1017.0 1015.7 0.0
30/12:30pm 23.1 18.7 4.6 30 9.5 W 17 24 9 13 1017.3 1016.0 0.0
30/12:00pm 22.4 18.3 4.5 31 9.1 WSW 15 20 8 11 1017.8 1016.5 0.0
30/11:30am 21.4 19.1 7.6 41 7.4 WNW 9 17 5 9 1018.1 1016.8 0.0
30/11:00am 20.8 17.7 5.6 37 7.8 W 11 15 6 8 1018.6 1017.3 0.0
30/10:30am 19.8 17.3 6.5 42 6.9 WSW 9 13 5 7 1018.5 1017.2 0.0
30/10:00am 18.7 17.4 5.9 43 6.5 WSW 2 9 1 5 1018.7 1017.5 0.0
30/09:30am 17.3 15.4 6.8 50 5.4 N 6 9 3 5 1018.5 1017.2 0.0
30/09:00am 15.3 14.4 7.6 60 4.0 W 2 6 1 3 1018.5 1017.2 0.0
30/08:30am 12.7 11.1 7.8 72 2.5 SW 6 9 3 5 1018.5 1017.2 0.0
30/08:00am 10.6 9.8 6.4 75 2.0 CALM 0 0 0 0 1018.4 1017.1 0.0
30/07:30am 8.7 7.9 6.3 85 1.2 CALM 0 0 0 0 1018.4 1017.1 0.0
30/07:00am 6.9 5.8 5.2 89 0.8 CALM 0 4 0 2 1018.2 1016.9 0.0
30/06:30am 6.5 5.5 5.8 95 0.3 CALM 0 0 0 0 1017.9 1016.6 0.0
30/06:00am 5.4 4.3 5.0 97 0.2 CALM 0 0 0 0 1017.7 1016.4 0.0
30/05:30am 5.6 4.4 4.4 92 0.5 CALM 0 0 0 0 1017.5 1016.1 0.0
30/05:00am 6.5 4.2 5.0 90 0.7 SSW 6 7 3 4 1017.2 1015.9 0.0
30/04:30am 7.0 4.8 5.2 88 0.8 SSW 6 7 3 4 1017.0 1015.7 0.0
30/04:00am 6.1 4.5 4.6 90 0.7 SE 2 9 1 5 1017.0 1015.7 0.0
30/03:30am 6.8 5.6 4.8 87 0.9 CALM 0 0 0 0 1017.0 1015.7 0.0
30/03:00am 8.4 6.1 5.7 83 1.3 SE 7 9 4 5 1017.3 1016.0 0.0
30/02:30am 8.0 6.9 5.3 83 1.3 CALM 0 0 0 0 1017.5 1016.1 0.0
30/02:00am 8.3 7.2 4.9 79 1.6 CALM 0 0 0 0 1017.7 1016.4 0.0
30/01:30am 10.1 9.1 5.7 74 2.1 CALM 0 0 0 0 1017.7 1016.4 0.0
30/01:00am 10.3 9.3 5.7 73 2.2 CALM 0 0 0 0 1018.0 1016.7 0.0
30/12:30am 10.2 9.0 4.6 68 2.6 CALM 0 0 0 0 1018.1 1016.8 0.0
30/12:00am 11.4 10.2 4.8 64 3.1 ESE 0 0 0 0 1018.1 1016.8 0.0
 
Date/Time
EDT
Temp
°C
App
Temp
°C
Dew
Point
Rel
Hum
%
Delta-T
°C
Wind Press
QNH
hPa
Press
MSL
hPa
Rain
since 9 am
mm
Dir
 
Spd
km/h
Gust
km/h
Spd
kts
Gust
kts
29/11:30pm 12.3 10.8 5.0 61 3.5 ESE 2 7 1 4 1018.2 1016.9 0.0
29/11:00pm 12.1 9.9 5.3 63 3.3 ENE 6 7 3 4 1018.2 1016.9 0.0
29/10:30pm 12.1 9.8 5.5 64 3.2 NE 7 7 4 4 1018.1 1016.8 0.0
29/10:00pm 11.7 9.3 5.1 64 3.2 NE 7 9 4 5 1018.1 1016.8 0.0
29/09:30pm 13.8 11.1 5.4 57 4.1 E 9 11 5 6 1018.0 1016.7 0.0
29/09:00pm 13.7 11.9 5.3 57 4.1 SSE 4 9 2 5 1017.9 1016.6 0.0
29/08:30pm 17.6 15.1 4.9 43 6.3 SSW 7 9 4 5 1017.7 1016.4 0.0
29/08:00pm 18.4 16.2 5.3 42 6.6 SSW 6 7 3 4 1017.6 1016.3 0.0
29/07:30pm 18.0 15.2 5.2 43 6.4 SSW 9 11 5 6 1017.3 1016.0 0.0
29/07:00pm 20.2 17.1 5.4 38 7.6 SW 11 13 6 7 1017.1 1015.8 0.0
29/06:30pm 21.9 18.5 5.8 35 8.4 WSW 13 17 7 9 1017.1 1015.8 0.0
29/06:00pm 22.3 18.4 5.3 33 8.8 WSW 15 20 8 11 1016.9 1015.6 0.0
29/05:30pm 22.9 18.5 6.6 35 8.7 WSW 19 26 10 14 1016.7 1015.4 0.0
29/05:00pm 23.3 19.2 6.1 33 9.1 SW 17 26 9 14 1016.6 1015.3 0.0
29/04:50pm 23.1 17.8 5.1 31 9.3 WSW 22 28 12 15 1016.6 1015.3 0.0
29/04:33pm 23.1 18.3 4.6 30 9.5 WSW 19 28 10 15 1016.7 1015.4 0.0
29/04:30pm 23.3 19.0 5.2 31 9.4 SW 17 28 9 15 1016.7 1015.4 0.0
29/04:00pm 23.2 19.4 5.6 32 9.2 W 15 20 8 11 1016.8 1015.5 0.0
29/03:30pm 23.6 18.5 6.0 32 9.3 W 22 28 12 15 1017.0 1015.7 0.0
29/03:00pm 22.7 20.7 6.9 36 8.4 WNW 7 11 4 6 1017.3 1016.0 0.0
29/02:30pm 22.5 19.6 6.7 36 8.4 WSW 11 19 6 10 1017.6 1016.3 0.0
29/02:00pm 22.0 19.3 5.4 34 8.6 SSW 9 20 5 11 1017.9 1016.6 0.0
29/01:30pm 21.3 17.7 6.8 39 7.7 W 15 20 8 11 1018.2 1016.9 0.0
29/01:00pm 21.2 18.5 8.8 45 6.8 SSW 13 22 7 12 1018.3 1017.0 0.0
29/12:30pm 20.0 16.6 6.0 40 7.2 SW 13 20 7 11 1018.7 1017.5 0.0
29/12:00pm 20.0 16.0 6.7 42 7.0 WSW 17 24 9 13 1019.1 1017.8 0.0
29/11:30am 19.3 15.6 6.1 42 6.8 SW 15 24 8 13 1019.4 1018.1 0.0
29/11:00am 18.8 17.0 7.3 47 6.0 S 6 20 3 11 1019.6 1018.3 0.0
29/10:30am 17.3 14.9 7.1 51 5.3 S 9 17 5 9 1019.6 1018.3 0.0
29/10:00am 15.9 12.5 5.8 51 5.0 SSW 13 20 7 11 1019.7 1018.4 0.0
29/09:30am 15.5 12.2 6.5 55 4.6 SW 13 19 7 10 1019.6 1018.3 0.0
29/09:00am 14.2 11.6 6.1 58 4.0 SW 9 13 5 7 1019.4 1018.1 0.0
29/08:30am 12.8 11.1 5.9 63 3.4 W 4 7 2 4 1019.3 1018.0 0.0
29/08:00am 11.9 9.7 5.3 64 3.2 W 6 7 3 4 1019.4 1018.1 0.0
29/07:30am 10.6 8.4 6.0 73 2.2 E 7 9 4 5 1019.0 1017.7 0.0
29/07:00am 7.8 4.8 4.0 77 1.7 ESE 9 11 5 6 1018.9 1017.6 0.0
29/06:30am 5.9 4.0 2.9 81 1.3 NNW 2 6 1 3 1018.5 1017.2 0.0
29/06:00am 6.7 4.5 3.3 79 1.5 NNW 4 7 2 4 1018.2 1016.9 0.0
29/05:30am 7.3 5.7 2.6 72 2.0 CALM 0 0 0 0 1018.0 1016.7 0.0
29/05:00am 8.4 7.0 3.5 71 2.2 CALM 0 6 0 3 1017.7 1016.4 0.0
29/04:30am 9.0 6.4 3.4 68 2.5 NE 6 7 3 4 1017.5 1016.1 0.0
29/04:00am 9.1 6.5 3.3 67 2.6 NE 6 7 3 4 1017.2 1015.9 0.0
29/03:30am 7.6 4.4 3.1 73 2.0 ENE 9 9 5 5 1017.0 1015.7 0.0
29/03:00am 7.2 4.0 2.9 74 1.9 NE 9 11 5 6 1016.9 1015.6 0.0
29/02:30am 7.3 4.4 2.8 73 2.0 NE 7 9 4 5 1016.9 1015.6 0.0
29/02:00am 8.5 5.5 2.1 64 2.8 N 7 9 4 5 1017.0 1015.7 0.0
29/01:30am 9.1 7.5 2.4 63 3.0 CALM 0 0 0 0 1017.1 1015.8 0.0
29/01:00am 10.6 9.1 2.9 59 3.5 CALM 0 6 0 3 1017.3 1016.0 0.0
29/12:30am 9.6 6.8 2.2 60 3.3 N 6 6 3 3 1017.5 1016.1 0.0
29/12:00am 8.8 6.0 1.9 62 3.0 NNW 6 9 3 5 1017.5 1016.1 0.0
 
Date/Time
EDT
Temp
°C
App
Temp
°C
Dew
Point
Rel
Hum
%
Delta-T
°C
Wind Press
QNH
hPa
Press
MSL
hPa
Rain
since 9 am
mm
Dir
 
Spd
km/h
Gust
km/h
Spd
kts
Gust
kts
28/11:30pm 9.1 5.8 2.2 62 3.0 NNE 9 11 5 6 1017.2 1015.9 0.0
28/11:00pm 10.7 9.0 1.8 54 3.9 CALM 0 6 0 3 1017.1 1015.8 0.0
28/10:30pm 10.3 8.6 1.9 56 3.7 CALM 0 0 0 0 1017.0 1015.7 0.0
28/10:00pm 11.1 7.8 2.2 54 4.0 W 9 11 5 6 1016.9 1015.6 0.0
28/09:30pm 11.7 8.0 2.2 52 4.3 W 11 15 6 8 1016.7 1015.4 0.0
28/09:00pm 12.1 8.0 2.0 50 4.5 W 13 15 7 8 1016.6 1015.3 0.0
28/08:30pm 13.0 8.5 2.0 47 5.0 W 15 17 8 9 1016.1 1014.7 0.0
28/08:00pm 14.0 9.0 1.6 43 5.6 W 17 20 9 11 1015.7 1014.4 0.0
28/07:30pm 15.4 10.0 1.2 38 6.4 W 19 24 10 13 1015.4 1014.1 0.0
28/07:00pm 16.6 9.8 1.1 35 7.1 W 26 33 14 18 1015.2 1013.9 0.0
28/06:30pm 17.3 10.6 1.3 34 7.4 W 26 35 14 19 1014.8 1013.4 0.0
28/06:00pm 18.5 12.2 1.5 32 8.0 W 24 32 13 17 1014.6 1013.2 0.0
28/05:30pm 18.5 11.8 1.5 32 8.0 W 26 39 14 21 1014.4 1013.1 0.0
28/05:00pm 18.9 12.2 1.4 31 8.2 W 26 37 14 20 1014.4 1013.1 0.0
28/04:30pm 19.0 11.9 1.5 31 8.2 W 28 39 15 21 1014.4 1013.1 0.0
28/04:00pm 19.9 13.0 2.3 31 8.5 W 28 39 15 21 1014.6 1013.2 0.0
28/03:30pm 19.2 11.6 0.8 29 8.5 WSW 30 39 16 21 1014.7 1013.3 0.0
28/03:00pm 19.0 11.6 2.0 32 8.1 WSW 30 37 16 20 1014.8 1013.4 0.0
28/02:30pm 19.0 11.9 1.1 30 8.4 W 28 37 15 20 1015.2 1013.9 0.0
28/02:00pm 18.9 11.9 1.9 32 8.0 W 28 44 15 24 1015.2 1013.9 0.0
28/01:30pm 18.0 10.5 1.5 33 7.7 W 30 39 16 21 1015.4 1014.1 0.0
28/01:00pm 18.7 11.4 2.5 34 7.7 W 30 39 16 21 1015.5 1014.2 0.0
28/12:30pm 17.4 10.1 -0.3 30 7.9 W 28 37 15 20 1015.7 1014.4 0.0
28/12:00pm 17.0 8.8 0.6 33 7.4 W 33 44 18 24 1016.2 1014.8 0.0
28/11:30am 16.1 8.6 1.4 37 6.7 W 30 41 16 22 1016.4 1015.1 0.0
28/11:00am 16.4 9.0 2.1 38 6.7 W 30 35 16 19 1016.3 1014.9 0.0
28/10:30am 16.0 8.5 1.3 37 6.7 W 30 37 16 20 1016.1 1014.7 0.0
28/10:00am 15.4 10.4 4.5 48 5.3 W 20 30 11 16 1016.1 1014.7 0.0
28/09:30am 14.3 10.1 3.7 49 5.0 W 15 22 8 12 1016.1 1014.7 0.0
28/09:00am 13.3 9.5 3.7 52 4.5 NW 13 17 7 9 1015.9 1014.6 0.0
28/08:30am 11.7 8.8 4.4 61 3.4 N 9 15 5 8 1016.2 1014.8 0.0
28/08:00am 9.6 7.5 4.0 68 2.6 N 4 9 2 5 1015.9 1014.6 0.0
28/07:30am 7.2 5.5 1.9 69 2.3 CALM 0 0 0 0 1015.7 1014.4 0.0
28/07:00am 6.3 3.3 2.2 75 1.8 N 7 9 4 5 1015.2 1013.9 0.0
28/06:30am 4.3 1.3 1.0 79 1.3 N 6 7 3 4 1014.8 1013.4 0.0
28/06:00am 4.1 0.9 0.6 78 1.4 N 7 9 4 5 1014.4 1013.1 0.0
28/05:30am 3.7 0.0 0.2 78 1.4 NE 9 9 5 5 1013.8 1012.4 0.0
28/05:00am 4.6 1.4 0.6 75 1.6 NNE 7 9 4 5 1013.4 1012.0 0.0
28/04:30am 5.4 1.8 0.6 71 2.0 NE 9 13 5 7 1013.4 1012.0 0.0
28/04:00am 6.4 2.8 0.5 66 2.4 NE 9 11 5 6 1013.5 1012.1 0.0
28/03:30am 7.1 4.1 0.5 63 2.7 NNE 6 7 3 4 1013.8 1012.4 0.0
28/03:00am 6.8 3.8 0.5 64 2.6 NNE 6 7 3 4 1013.5 1012.1 0.0
28/02:30am 9.8 6.2 0.7 53 3.9 S 9 15 5 8 1013.5 1012.1 0.0
28/02:00am 9.3 5.4 1.0 56 3.6 SSW 11 11 6 6 1013.6 1012.2 0.0
28/01:30am 9.2 7.5 1.6 59 3.3 CALM 0 9 0 5 1013.9 1012.5 0.0
28/01:00am 8.5 5.4 1.2 60 3.1 WSW 7 11 4 6 1014.3 1013.0 0.0
28/12:30am 9.6 6.7 1.5 57 3.5 SW 6 7 3 4 1014.3 1013.0 0.0
28/12:00am 10.2 7.1 1.6 55 3.8 SW 7 9 4 5 1014.1 1012.8 0.0

Other Formats:

Comma delimited format used in spreadsheet applications
http://www.bom.gov.au/fwo/IDN60801/IDN60801.94729.axf

JavaScript Object Notation format (JSON) in row-major order
http://www.bom.gov.au/fwo/IDN60801/IDN60801.94729.json